Time;durP1;ratioP1;P1;durP2;ratioP2;P2;SDS_P1;SDS_P2;PMS_P1;PMS_P2;Temp;Humidity;BMP_temperature;BMP_pressure;BME280_temperature;BME280_humidity;BME280_pressure;Samples;Min_cycle;Max_cycle;Signal;HPM_P1;HPM_P2
2021/05/23 00:00:39;;;;;;;10.90;3.83;;;;;;;;;;6920714;28;20106;-79
2021/05/23 00:04:00;;;;;;;8.95;3.25;;;;;;;;;;6917611;28;20033;-78
2021/05/23 00:07:25;;;;;;;9.65;3.20;;;;;;;;;;6918299;28;20124;-75
2021/05/23 00:10:49;;;;;;;15.90;3.00;;;;;;;;;;6920437;28;20112;-78
2021/05/23 00:14:10;;;;;;;9.95;3.28;;;;;;;;;;6919912;28;20029;-78
2021/05/23 00:17:30;;;;;;;7.20;2.92;;;;;;;;;;6920681;28;20038;-77
2021/05/23 00:20:51;;;;;;;10.70;3.45;;;;;;;;;;6909015;28;20050;-77
2021/05/23 00:24:12;;;;;;;8.70;3.60;;;;;;;;;;6906376;28;20499;-78
2021/05/23 00:27:32;;;;;;;9.10;3.38;;;;;;;;;;6914502;28;20040;-78
2021/05/23 00:30:53;;;;;;;11.13;3.55;;;;;;;;;;6988131;23;20084;-79
2021/05/23 00:34:13;;;;;;;10.63;3.50;;;;;;;;;;6919869;28;20109;-78
2021/05/23 00:37:34;;;;;;;8.90;2.78;;;;;;;;;;6920156;28;20412;-78
2021/05/23 00:40:54;;;;;;;7.80;2.80;;;;;;;;;;6918851;28;20472;-77
2021/05/23 00:44:15;;;;;;;8.48;2.95;;;;;;;;;;6919596;28;20084;-78
2021/05/23 00:47:35;;;;;;;8.93;3.20;;;;;;;;;;6919992;28;20030;-78
2021/05/23 00:50:56;;;;;;;7.55;2.88;;;;;;;;;;6918599;28;20018;-78
2021/05/23 00:54:16;;;;;;;7.28;2.97;;;;;;;;;;6917966;28;20547;-78
2021/05/23 00:57:37;;;;;;;9.55;3.00;;;;;;;;;;6916866;28;20052;-78
2021/05/23 01:00:57;;;;;;;13.20;3.55;;;;;;;;;;6918165;28;20025;-77
2021/05/23 01:04:18;;;;;;;6.28;2.58;;;;;;;;;;6919312;28;20034;-78
2021/05/23 01:07:40;;;;;;;6.95;2.83;;;;;;;;;;6912809;28;20030;-78
2021/05/23 01:11:01;;;;;;;8.73;2.83;;;;;;;;;;6911821;28;20485;-77
2021/05/23 01:14:40;;;;;;;6.85;2.53;;;;;;;;;;6919237;28;20041;-78
2021/05/23 01:18:04;;;;;;;6.55;2.45;;;;;;;;;;6916636;28;20041;-78
2021/05/23 01:21:27;;;;;;;7.25;2.88;;;;;;;;;;6918626;28;20072;-78
2021/05/23 01:25:08;;;;;;;5.80;2.95;;;;;;;;;;6916738;28;20379;-78
2021/05/23 01:28:32;;;;;;;6.00;2.65;;;;;;;;;;6918964;28;20029;-79
2021/05/23 01:31:56;;;;;;;8.10;3.00;;;;;;;;;;6916696;28;20115;-78
2021/05/23 01:35:21;;;;;;;7.10;2.63;;;;;;;;;;6918531;28;20034;-78
2021/05/23 01:38:42;;;;;;;7.18;2.63;;;;;;;;;;6905013;28;20030;-78
2021/05/23 01:42:02;;;;;;;7.38;3.15;;;;;;;;;;6918438;28;20036;-78
2021/05/23 01:45:23;;;;;;;6.70;2.75;;;;;;;;;;6908033;28;20034;-79
2021/05/23 01:48:43;;;;;;;5.40;2.55;;;;;;;;;;6916585;28;20025;-78
2021/05/23 01:52:04;;;;;;;7.78;2.30;;;;;;;;;;6914175;28;20026;-79
2021/05/23 01:55:25;;;;;;;5.20;2.47;;;;;;;;;;6895703;28;20109;-79
2021/05/23 01:58:46;;;;;;;7.07;2.85;;;;;;;;;;6907594;28;20026;-78
2021/05/23 02:02:06;;;;;;;6.65;2.45;;;;;;;;;;6917495;28;20055;-79
2021/05/23 02:05:26;;;;;;;6.28;2.42;;;;;;;;;;6902255;28;20038;-79
2021/05/23 02:08:47;;;;;;;7.63;2.58;;;;;;;;;;6916663;28;20407;-79
2021/05/23 02:12:08;;;;;;;3.83;2.10;;;;;;;;;;6916758;28;20116;-78
2021/05/23 02:15:28;;;;;;;10.30;2.90;;;;;;;;;;6917183;28;20088;-79
2021/05/23 02:18:49;;;;;;;5.53;2.22;;;;;;;;;;6917138;28;20034;-79
2021/05/23 02:22:09;;;;;;;5.15;2.60;;;;;;;;;;6917865;28;20053;-78
2021/05/23 02:25:32;;;;;;;6.10;2.33;;;;;;;;;;6915729;28;20129;-79
2021/05/23 02:28:53;;;;;;;5.53;2.58;;;;;;;;;;6904399;28;20054;-78
2021/05/23 02:32:14;;;;;;;5.40;2.17;;;;;;;;;;6915451;28;20046;-79
2021/05/23 02:35:37;;;;;;;6.68;3.13;;;;;;;;;;6916290;28;20045;-81
2021/05/23 02:38:57;;;;;;;4.50;1.95;;;;;;;;;;6917236;28;20457;-79
2021/05/23 02:42:18;;;;;;;4.35;2.58;;;;;;;;;;6916513;28;20030;-79
2021/05/23 02:45:38;;;;;;;3.83;2.20;;;;;;;;;;6917439;28;20022;-78
2021/05/23 02:48:59;;;;;;;8.90;2.28;;;;;;;;;;6916913;28;20395;-79
2021/05/23 02:52:19;;;;;;;4.25;2.13;;;;;;;;;;6916460;28;20034;-79
2021/05/23 02:55:42;;;;;;;3.38;2.17;;;;;;;;;;6914561;28;20060;-79
2021/05/23 02:59:02;;;;;;;4.25;2.10;;;;;;;;;;6915586;28;20109;-78
2021/05/23 03:02:23;;;;;;;3.80;2.00;;;;;;;;;;6913372;28;20034;-78
2021/05/23 03:05:44;;;;;;;5.85;1.90;;;;;;;;;;6917094;28;20058;-78
2021/05/23 03:09:04;;;;;;;4.70;2.20;;;;;;;;;;6915694;28;20030;-78
2021/05/23 03:12:24;;;;;;;3.15;1.90;;;;;;;;;;6914480;28;20052;-78
2021/05/23 03:15:45;;;;;;;4.22;1.65;;;;;;;;;;6917063;28;20030;-78
2021/05/23 03:19:05;;;;;;;3.00;1.77;;;;;;;;;;6922270;28;20108;-78
2021/05/23 03:22:26;;;;;;;4.13;1.80;;;;;;;;;;6921963;28;20113;-78
2021/05/23 03:25:46;;;;;;;2.83;1.85;;;;;;;;;;6921513;28;20546;-78
2021/05/23 03:29:07;;;;;;;3.40;1.95;;;;;;;;;;6921393;28;20069;-78
2021/05/23 03:32:27;;;;;;;1.92;1.60;;;;;;;;;;6920261;28;20057;-78
2021/05/23 03:35:47;;;;;;;4.20;1.80;;;;;;;;;;6921328;28;20476;-78
2021/05/23 03:39:08;;;;;;;3.20;1.88;;;;;;;;;;6921433;28;20442;-78
2021/05/23 03:42:28;;;;;;;3.97;2.22;;;;;;;;;;6921432;28;20046;-78
2021/05/23 03:45:49;;;;;;;4.70;2.20;;;;;;;;;;6921119;28;20034;-78
2021/05/23 03:49:09;;;;;;;2.75;1.70;;;;;;;;;;6921372;28;20069;-77
2021/05/23 03:52:30;;;;;;;3.08;2.00;;;;;;;;;;6921172;28;20026;-78
2021/05/23 03:55:50;;;;;;;5.03;2.17;;;;;;;;;;6920522;28;20028;-77
2021/05/23 03:59:10;;;;;;;3.78;1.92;;;;;;;;;;6919490;28;20061;-77
2021/05/23 04:02:31;;;;;;;3.85;1.83;;;;;;;;;;6920678;28;20061;-78
2021/05/23 04:05:51;;;;;;;5.40;1.92;;;;;;;;;;6921821;28;20475;-78
2021/05/23 04:09:12;;;;;;;4.70;2.03;;;;;;;;;;6920395;28;20121;-77
2021/05/23 04:12:36;;;;;;;6.05;2.33;;;;;;;;;;6919699;28;20022;-78
2021/05/23 04:15:56;;;;;;;3.33;1.73;;;;;;;;;;6920500;28;20117;-78
2021/05/23 04:19:17;;;;;;;2.80;1.90;;;;;;;;;;6920119;28;20038;-78
2021/05/23 04:22:37;;;;;;;5.47;2.20;;;;;;;;;;6920635;28;20443;-78
2021/05/23 04:25:58;;;;;;;2.95;1.58;;;;;;;;;;6920502;28;20026;-78
2021/05/23 04:29:18;;;;;;;4.35;1.95;;;;;;;;;;6918340;28;20049;-78
2021/05/23 04:32:39;;;;;;;4.18;1.83;;;;;;;;;;6920754;28;20080;-79
2021/05/23 04:35:59;;;;;;;2.70;1.60;;;;;;;;;;6919389;28;20029;-78
2021/05/23 04:39:20;;;;;;;1.92;1.60;;;;;;;;;;6919366;28;20455;-78
2021/05/23 04:42:41;;;;;;;4.45;1.75;;;;;;;;;;6920825;28;20037;-78
2021/05/23 04:46:01;;;;;;;3.55;1.83;;;;;;;;;;6920099;28;20037;-78
2021/05/23 04:49:22;;;;;;;3.25;1.65;;;;;;;;;;6920208;28;20061;-79
2021/05/23 04:52:42;;;;;;;2.22;1.38;;;;;;;;;;6919437;28;20076;-78
2021/05/23 04:56:03;;;;;;;4.80;1.80;;;;;;;;;;6919529;28;20368;-79
2021/05/23 04:59:23;;;;;;;2.28;1.60;;;;;;;;;;6919734;28;20135;-79
2021/05/23 05:02:44;;;;;;;5.00;2.40;;;;;;;;;;6920198;28;20022;-78
2021/05/23 05:06:05;;;;;;;3.75;2.17;;;;;;;;;;6919670;28;20383;-78
2021/05/23 05:09:26;;;;;;;3.42;1.80;;;;;;;;;;6919100;28;20460;-79
2021/05/23 05:12:46;;;;;;;3.92;2.00;;;;;;;;;;6917713;28;20109;-78
2021/05/23 05:16:08;;;;;;;3.92;1.90;;;;;;;;;;6918867;28;20033;-78
2021/05/23 05:19:28;;;;;;;5.10;1.60;;;;;;;;;;6919751;28;20033;-79
2021/05/23 05:22:50;;;;;;;2.25;1.48;;;;;;;;;;6917604;28;20037;-78
2021/05/23 05:26:11;;;;;;;2.63;1.55;;;;;;;;;;6906716;28;20058;-79
2021/05/23 05:29:31;;;;;;;4.07;1.48;;;;;;;;;;6919242;28;20085;-78
2021/05/23 05:32:52;;;;;;;2.40;1.90;;;;;;;;;;6918045;28;20134;-78
2021/05/23 05:36:12;;;;;;;5.40;3.30;;;;;;;;;;6918889;28;20076;-78
2021/05/23 05:39:32;;;;;;;4.68;3.50;;;;;;;;;;6917327;28;20064;-79
2021/05/23 05:42:53;;;;;;;6.57;3.50;;;;;;;;;;6915901;28;20033;-78
2021/05/23 05:46:13;;;;;;;9.25;8.60;;;;;;;;;;6918899;28;20057;-78
2021/05/23 05:49:36;;;;;;;10.05;9.25;;;;;;;;;;6917564;28;20035;-78
2021/05/23 05:52:57;;;;;;;8.75;8.15;;;;;;;;;;6917430;28;20465;-79
2021/05/23 05:56:17;;;;;;;2.78;1.75;;;;;;;;;;6917259;28;20029;-79
2021/05/23 05:59:38;;;;;;;3.47;2.08;;;;;;;;;;6913739;28;20078;-79
2021/05/23 06:03:01;;;;;;;3.40;1.50;;;;;;;;;;6914992;28;20033;-79
2021/05/23 06:06:22;;;;;;;3.95;1.52;;;;;;;;;;6915562;28;20032;-79
2021/05/23 06:09:42;;;;;;;2.35;1.65;;;;;;;;;;6917807;28;20026;-79
2021/05/23 06:13:04;;;;;;;4.90;1.67;;;;;;;;;;6913695;28;20108;-79
2021/05/23 06:16:25;;;;;;;5.95;1.30;;;;;;;;;;6915305;28;20033;-79
2021/05/23 06:19:47;;;;;;;4.30;1.80;;;;;;;;;;6911280;28;20070;-79
2021/05/23 06:23:07;;;;;;;6.72;1.30;;;;;;;;;;6909930;28;20034;-78
2021/05/23 06:26:28;;;;;;;23.85;1.85;;;;;;;;;;6901016;28;20372;-78
2021/05/23 06:29:48;;;;;;;15.70;1.45;;;;;;;;;;6900472;28;20052;-79
2021/05/23 06:33:09;;;;;;;9.80;1.95;;;;;;;;;;6912934;28;20385;-78
2021/05/23 06:36:29;;;;;;;9.93;1.50;;;;;;;;;;6918983;28;20053;-79
2021/05/23 06:39:50;;;;;;;5.90;1.63;;;;;;;;;;6910466;28;20383;-80
2021/05/23 06:43:13;;;;;;;6.32;1.80;;;;;;;;;;6913917;28;20057;-79
2021/05/23 06:46:33;;;;;;;15.57;2.25;;;;;;;;;;6912190;28;20351;-80
2021/05/23 06:49:53;;;;;;;6.72;1.83;;;;;;;;;;6915936;28;20452;-80
2021/05/23 06:53:14;;;;;;;5.20;1.80;;;;;;;;;;6916075;28;20433;-81
2021/05/23 06:56:34;;;;;;;4.30;1.55;;;;;;;;;;6915914;28;20026;-81
2021/05/23 06:59:55;;;;;;;7.85;1.80;;;;;;;;;;6915785;28;20026;-82
2021/05/23 07:03:16;;;;;;;4.50;2.03;;;;;;;;;;6916714;28;20381;-80
2021/05/23 07:06:36;;;;;;;2.78;1.70;;;;;;;;;;6916437;28;20460;-81
2021/05/23 07:09:57;;;;;;;9.38;2.22;;;;;;;;;;6916085;28;20041;-81
2021/05/23 07:13:17;;;;;;;2.85;1.50;;;;;;;;;;6915619;28;20498;-81
2021/05/23 07:16:37;;;;;;;6.65;1.88;;;;;;;;;;6913498;28;20045;-80
2021/05/23 07:19:58;;;;;;;3.38;1.45;;;;;;;;;;6913142;28;20127;-80
2021/05/23 07:23:18;;;;;;;7.72;2.08;;;;;;;;;;6908580;28;20091;-79
2021/05/23 07:26:39;;;;;;;8.13;2.05;;;;;;;;;;6910059;28;20045;-80
2021/05/23 07:29:59;;;;;;;3.47;1.45;;;;;;;;;;6916216;28;20053;-80
2021/05/23 07:33:20;;;;;;;7.22;1.83;;;;;;;;;;6916373;28;20034;-80
2021/05/23 07:36:41;;;;;;;2.50;1.65;;;;;;;;;;6915312;28;20029;-79
2021/05/23 07:40:03;;;;;;;5.75;1.88;;;;;;;;;;6915999;28;20045;-79
2021/05/23 07:43:23;;;;;;;4.10;1.60;;;;;;;;;;6929775;28;20030;-79
2021/05/23 07:46:45;;;;;;;4.75;1.83;;;;;;;;;;6915625;28;20084;-80
2021/05/23 07:50:08;;;;;;;6.60;2.20;;;;;;;;;;6914305;28;20061;-80
2021/05/23 07:53:29;;;;;;;10.10;1.77;;;;;;;;;;6914579;28;20033;-80
2021/05/23 07:56:49;;;;;;;8.38;2.05;;;;;;;;;;6914358;28;20109;-80
2021/05/23 08:00:10;;;;;;;7.00;1.88;;;;;;;;;;6916308;28;20583;-79
2021/05/23 08:03:31;;;;;;;9.60;1.73;;;;;;;;;;6902212;28;20050;-79
2021/05/23 08:06:51;;;;;;;6.95;1.50;;;;;;;;;;6919178;28;20407;-80
2021/05/23 08:10:13;;;;;;;10.18;2.25;;;;;;;;;;6906603;28;20053;-80
2021/05/23 08:13:34;;;;;;;12.20;1.83;;;;;;;;;;6919750;28;20041;-79
2021/05/23 08:16:54;;;;;;;9.60;1.85;;;;;;;;;;6920462;28;20069;-79
2021/05/23 08:20:15;;;;;;;3.67;1.60;;;;;;;;;;6920344;28;20038;-79
2021/05/23 08:23:36;;;;;;;7.13;2.05;;;;;;;;;;6920720;28;20372;-80
2021/05/23 08:26:57;;;;;;;14.30;1.75;;;;;;;;;;6919854;28;20102;-80
2021/05/23 08:30:18;;;;;;;6.03;1.58;;;;;;;;;;6918130;28;20147;-79
2021/05/23 08:33:38;;;;;;;4.35;2.08;;;;;;;;;;6906936;28;20375;-79
2021/05/23 08:37:01;;;;;;;7.78;2.00;;;;;;;;;;6919956;28;20691;-80
2021/05/23 08:40:21;;;;;;;4.78;1.95;;;;;;;;;;6920039;28;20041;-80
2021/05/23 08:43:42;;;;;;;4.45;1.80;;;;;;;;;;6920342;28;20026;-80
2021/05/23 08:47:03;;;;;;;3.28;1.50;;;;;;;;;;6919266;28;20436;-79
2021/05/23 08:50:24;;;;;;;3.95;1.70;;;;;;;;;;6919378;28;20464;-80
2021/05/23 08:53:44;;;;;;;6.82;1.80;;;;;;;;;;6919571;28;20452;-80
2021/05/23 08:57:05;;;;;;;11.10;1.90;;;;;;;;;;6918341;28;20436;-80
2021/05/23 09:00:26;;;;;;;6.63;1.45;;;;;;;;;;6905569;28;20341;-80
2021/05/23 09:04:01;;;;;;;8.20;2.28;;;;;;;;;;6918969;28;20132;-80
2021/05/23 09:07:22;;;;;;;8.43;2.60;;;;;;;;;;6916952;28;20037;-79
2021/05/23 09:10:44;;;;;;;9.48;2.50;;;;;;;;;;6917264;28;20451;-80
2021/05/23 09:14:04;;;;;;;7.97;2.20;;;;;;;;;;6907973;28;20068;-80
2021/05/23 09:17:26;;;;;;;7.25;3.30;;;;;;;;;;6917514;28;20065;-79
2021/05/23 09:20:47;;;;;;;9.50;3.40;;;;;;;;;;6916676;28;20034;-80
2021/05/23 09:24:09;;;;;;;9.48;3.28;;;;;;;;;;6917518;28;20113;-79
2021/05/23 09:27:31;;;;;;;7.95;3.15;;;;;;;;;;6932728;28;20041;-80
2021/05/23 09:30:52;;;;;;;16.42;3.88;;;;;;;;;;6910832;28;20124;-80
2021/05/23 09:34:23;;;;;;;11.23;4.20;;;;;;;;;;6916852;28;20037;-80
2021/05/23 09:37:44;;;;;;;12.52;3.83;;;;;;;;;;6912315;28;20026;-80
2021/05/23 09:41:16;;;;;;;8.85;3.63;;;;;;;;;;6918272;28;20420;-80
2021/05/23 09:44:38;;;;;;;14.95;4.25;;;;;;;;;;6927509;28;20025;-80
2021/05/23 09:47:58;;;;;;;7.75;3.50;;;;;;;;;;6918432;28;20021;-79
2021/05/23 09:51:19;;;;;;;8.50;2.85;;;;;;;;;;6918204;28;20042;-82
2021/05/23 09:54:53;;;;;;;8.15;3.17;;;;;;;;;;6917870;28;20065;-81
2021/05/23 09:58:37;;;;;;;11.93;4.00;;;;;;;;;;6918083;28;20034;-81
2021/05/23 10:02:08;;;;;;;10.27;3.17;;;;;;;;;;6917459;28;20030;-81
2021/05/23 10:05:28;;;;;;;13.82;3.20;;;;;;;;;;6934657;28;20037;-82
2021/05/23 10:08:49;;;;;;;13.07;3.50;;;;;;;;;;6917506;28;20447;-81
2021/05/23 10:12:14;;;;;;;10.40;3.80;;;;;;;;;;6918138;28;20060;-81
2021/05/23 10:15:36;;;;;;;11.45;3.53;;;;;;;;;;6917122;28;20053;-81
2021/05/23 10:18:57;;;;;;;6.50;3.08;;;;;;;;;;6917050;28;20076;-80
2021/05/23 10:22:18;;;;;;;10.90;3.15;;;;;;;;;;6920425;28;20057;-81
2021/05/23 10:25:48;;;;;;;5.47;2.45;;;;;;;;;;6916768;28;20032;-82
2021/05/23 10:29:08;;;;;;;7.13;3.13;;;;;;;;;;6910747;28;20041;-82
2021/05/23 10:32:31;;;;;;;10.55;3.42;;;;;;;;;;6913354;28;20050;-81
2021/05/23 10:35:54;;;;;;;13.40;3.40;;;;;;;;;;6919593;28;20033;-82
2021/05/23 10:39:15;;;;;;;8.95;2.90;;;;;;;;;;6921033;28;20054;-80
2021/05/23 10:42:48;;;;;;;11.07;3.25;;;;;;;;;;6911882;28;20483;-80
2021/05/23 10:46:13;;;;;;;9.10;2.92;;;;;;;;;;6913100;28;20036;-79
2021/05/23 10:49:33;;;;;;;7.38;3.20;;;;;;;;;;6917924;28;20022;-80
2021/05/23 10:52:57;;;;;;;6.55;2.95;;;;;;;;;;6918958;28;20033;-79
2021/05/23 10:56:22;;;;;;;10.32;3.03;;;;;;;;;;6926210;28;20026;-81
2021/05/23 10:59:43;;;;;;;10.70;3.30;;;;;;;;;;6920727;28;20512;-83
2021/05/23 11:03:12;;;;;;;7.85;2.92;;;;;;;;;;6917180;28;20558;-82
2021/05/23 11:06:33;;;;;;;7.10;2.70;;;;;;;;;;6917838;28;20029;-82
2021/05/23 11:09:53;;;;;;;11.00;3.67;;;;;;;;;;6916812;28;20034;-82
2021/05/23 11:13:15;;;;;;;8.23;3.13;;;;;;;;;;6919243;28;20433;-82
2021/05/23 11:16:44;;;;;;;9.23;2.65;;;;;;;;;;6918531;28;20026;-82
2021/05/23 11:20:25;;;;;;;9.70;3.20;;;;;;;;;;6918714;28;20109;-81
2021/05/23 11:23:56;;;;;;;5.53;2.90;;;;;;;;;;6919660;28;20046;-82
2021/05/23 11:27:18;;;;;;;11.57;2.90;;;;;;;;;;6917609;28;20030;-79
2021/05/23 11:30:39;;;;;;;11.88;3.30;;;;;;;;;;6918215;28;20046;-80
2021/05/23 11:34:02;;;;;;;15.75;2.75;;;;;;;;;;6918084;28;20036;-81
2021/05/23 11:37:22;;;;;;;9.15;2.72;;;;;;;;;;6917798;28;20032;-80
2021/05/23 11:40:43;;;;;;;10.77;2.85;;;;;;;;;;6909152;28;20117;-80
2021/05/23 11:44:06;;;;;;;13.77;3.15;;;;;;;;;;6913168;28;20033;-81
2021/05/23 11:47:27;;;;;;;9.95;2.92;;;;;;;;;;6919839;28;20038;-83
2021/05/23 11:50:48;;;;;;;4.70;2.30;;;;;;;;;;6920910;28;20029;-81
2021/05/23 11:54:08;;;;;;;7.05;2.60;;;;;;;;;;6922116;28;20167;-80
2021/05/23 11:57:29;;;;;;;5.90;2.33;;;;;;;;;;6921245;28;20026;-80
2021/05/23 12:00:49;;;;;;;7.57;2.78;;;;;;;;;;6918056;28;20123;-79
2021/05/23 12:04:12;;;;;;;7.40;2.35;;;;;;;;;;6910655;28;20046;-80
2021/05/23 12:07:37;;;;;;;5.60;2.58;;;;;;;;;;6918679;28;20029;-80
2021/05/23 12:11:02;;;;;;;6.75;2.50;;;;;;;;;;6919252;28;20418;-80
2021/05/23 12:14:30;;;;;;;8.05;2.60;;;;;;;;;;6912186;28;20117;-80
2021/05/23 12:17:56;;;;;;;5.88;2.20;;;;;;;;;;6914544;28;20046;-80
2021/05/23 12:21:21;;;;;;;6.75;2.38;;;;;;;;;;6911187;28;20029;-81
2021/05/23 12:24:42;;;;;;;7.43;2.47;;;;;;;;;;6926193;28;20029;-81
2021/05/23 12:28:02;;;;;;;4.68;2.20;;;;;;;;;;6919096;28;20049;-81
2021/05/23 12:31:23;;;;;;;4.95;2.30;;;;;;;;;;7132765;23;20050;-87
2021/05/23 12:34:44;;;;;;;7.35;2.63;;;;;;;;;;6920557;28;20030;-87
2021/05/23 12:38:17;;;;;;;4.18;2.38;;;;;;;;;;6918160;28;20387;-87
2021/05/23 12:41:40;;;;;;;5.82;2.60;;;;;;;;;;6918635;28;20376;-86
2021/05/23 12:45:07;;;;;;;4.80;2.40;;;;;;;;;;6915085;28;20480;-82
2021/05/23 12:48:31;;;;;;;3.47;2.03;;;;;;;;;;6895807;28;20037;-86
2021/05/23 12:51:53;;;;;;;4.30;2.20;;;;;;;;;;6914993;28;20034;-84
2021/05/23 12:55:16;;;;;;;4.07;1.90;;;;;;;;;;6920089;28;20460;-88
2021/05/23 12:58:56;;;;;;;5.57;2.40;;;;;;;;;;6920042;28;20049;-86
2021/05/23 13:02:17;;;;;;;8.63;1.95;;;;;;;;;;6919779;28;20460;-86
2021/05/23 13:05:38;;;;;;;4.93;1.95;;;;;;;;;;6918058;28;20033;-83
2021/05/23 13:09:01;;;;;;;3.90;2.13;;;;;;;;;;6919425;28;20037;-86
2021/05/23 13:12:25;;;;;;;9.50;2.08;;;;;;;;;;6917948;28;20527;-86
2021/05/23 13:15:46;;;;;;;2.88;1.80;;;;;;;;;;6919844;28;20022;-86
2021/05/23 13:19:11;;;;;;;4.63;2.03;;;;;;;;;;6920697;28;20172;-87
2021/05/23 13:22:32;;;;;;;3.30;1.98;;;;;;;;;;6917466;28;20042;-83
2021/05/23 13:25:53;;;;;;;5.30;2.30;;;;;;;;;;6918529;28;20516;-82
2021/05/23 13:29:13;;;;;;;4.88;2.25;;;;;;;;;;6919189;28;20030;-82
2021/05/23 13:32:34;;;;;;;4.25;1.67;;;;;;;;;;6914793;28;20128;-82
2021/05/23 13:35:54;;;;;;;5.82;2.33;;;;;;;;;;6917099;28;20033;-89
2021/05/23 13:39:15;;;;;;;11.20;2.05;;;;;;;;;;6917667;28;20038;-85
2021/05/23 13:42:35;;;;;;;9.45;2.17;;;;;;;;;;6916711;28;20117;-88
2021/05/23 13:45:56;;;;;;;4.93;2.03;;;;;;;;;;6912967;28;20033;-87
2021/05/23 13:49:18;;;;;;;3.60;1.80;;;;;;;;;;6918304;28;20026;-86
2021/05/23 13:52:38;;;;;;;3.17;1.67;;;;;;;;;;6917962;28;20033;-86
2021/05/23 13:55:59;;;;;;;5.28;2.30;;;;;;;;;;6918520;28;20037;-86
2021/05/23 13:59:19;;;;;;;8.63;2.10;;;;;;;;;;6916500;28;20037;-84
2021/05/23 14:02:40;;;;;;;4.03;1.98;;;;;;;;;;6914829;28;20033;-83
2021/05/23 14:06:01;;;;;;;7.32;1.83;;;;;;;;;;6910457;28;20077;-84
2021/05/23 14:09:21;;;;;;;5.38;2.13;;;;;;;;;;6918621;28;20386;-85
2021/05/23 14:12:42;;;;;;;3.13;1.95;;;;;;;;;;6917487;28;20037;-84
2021/05/23 14:16:03;;;;;;;6.75;2.08;;;;;;;;;;6915713;28;20068;-85
2021/05/23 14:19:24;;;;;;;6.40;2.20;;;;;;;;;;6906429;28;20052;-83
2021/05/23 14:22:44;;;;;;;4.93;2.10;;;;;;;;;;6911145;28;20360;-84
2021/05/23 14:26:05;;;;;;;6.72;2.20;;;;;;;;;;6914679;28;20156;-85
2021/05/23 14:29:26;;;;;;;7.25;2.70;;;;;;;;;;6916939;28;20475;-82
2021/05/23 14:32:47;;;;;;;6.53;2.30;;;;;;;;;;6916081;28;20049;-82
2021/05/23 14:36:07;;;;;;;11.93;2.55;;;;;;;;;;6916478;28;20061;-82
2021/05/23 14:39:28;;;;;;;9.20;2.17;;;;;;;;;;6917780;28;20040;-84
2021/05/23 14:42:49;;;;;;;7.10;2.30;;;;;;;;;;6917250;28;20444;-82
2021/05/23 14:46:09;;;;;;;9.23;2.30;;;;;;;;;;6915173;28;20033;-83
2021/05/23 14:49:29;;;;;;;7.28;2.58;;;;;;;;;;6916675;28;20041;-84
2021/05/23 14:52:50;;;;;;;8.98;2.25;;;;;;;;;;6916966;28;20439;-83
2021/05/23 14:56:10;;;;;;;6.68;2.42;;;;;;;;;;6916734;28;20069;-83
2021/05/23 14:59:33;;;;;;;6.82;2.38;;;;;;;;;;6915874;28;20039;-83
2021/05/23 15:02:53;;;;;;;4.72;2.22;;;;;;;;;;6916452;28;20038;-83
2021/05/23 15:06:14;;;;;;;9.98;2.53;;;;;;;;;;6915356;28;20048;-81
2021/05/23 15:09:35;;;;;;;6.45;2.72;;;;;;;;;;6916500;28;20056;-82
2021/05/23 15:12:55;;;;;;;3.95;2.47;;;;;;;;;;6915662;28;20159;-81
2021/05/23 15:16:16;;;;;;;5.60;2.30;;;;;;;;;;6915126;28;20030;-82
2021/05/23 15:19:36;;;;;;;6.65;2.28;;;;;;;;;;6912665;28;20026;-82
2021/05/23 15:22:57;;;;;;;14.20;2.30;;;;;;;;;;6915716;28;20046;-83
2021/05/23 15:26:23;;;;;;;5.78;2.60;;;;;;;;;;6916394;28;20468;-84
2021/05/23 15:29:52;;;;;;;7.22;2.05;;;;;;;;;;6916067;28;20034;-84
2021/05/23 15:33:12;;;;;;;7.88;2.17;;;;;;;;;;6906209;28;20046;-84
2021/05/23 15:36:32;;;;;;;7.82;2.50;;;;;;;;;;6911034;28;20040;-85
2021/05/23 15:39:53;;;;;;;10.82;2.17;;;;;;;;;;6913693;28;20088;-83
2021/05/23 15:43:13;;;;;;;4.85;2.00;;;;;;;;;;6915110;28;20443;-82
2021/05/23 15:46:34;;;;;;;6.78;2.40;;;;;;;;;;6915584;28;20026;-84
2021/05/23 15:49:55;;;;;;;7.43;2.35;;;;;;;;;;6913932;28;20034;-82
2021/05/23 15:53:15;;;;;;;8.70;2.40;;;;;;;;;;6916198;28;20112;-86
2021/05/23 15:56:35;;;;;;;9.77;2.35;;;;;;;;;;6914944;28;20034;-85
2021/05/23 15:59:56;;;;;;;8.10;2.47;;;;;;;;;;6915478;28;20535;-86
2021/05/23 16:03:16;;;;;;;9.82;2.30;;;;;;;;;;6915611;28;20038;-86
2021/05/23 16:06:37;;;;;;;9.55;2.53;;;;;;;;;;6916180;28;20041;-86
2021/05/23 16:09:57;;;;;;;12.82;2.53;;;;;;;;;;6917059;28;20484;-87
2021/05/23 16:13:17;;;;;;;7.05;2.42;;;;;;;;;;6915495;28;20472;-86
2021/05/23 16:16:38;;;;;;;6.35;1.80;;;;;;;;;;6915814;28;20107;-87
2021/05/23 16:19:58;;;;;;;8.00;2.20;;;;;;;;;;6916708;28;20038;-88
2021/05/23 16:23:19;;;;;;;7.57;2.25;;;;;;;;;;6915685;28;20069;-87
2021/05/23 16:26:40;;;;;;;5.53;2.00;;;;;;;;;;6914913;28;20125;-86
2021/05/23 16:30:00;;;;;;;4.88;1.80;;;;;;;;;;6920413;28;20073;-86
2021/05/23 16:33:20;;;;;;;11.68;2.25;;;;;;;;;;6918385;28;20072;-86
2021/05/23 16:36:41;;;;;;;4.20;1.80;;;;;;;;;;6916722;28;20464;-87
2021/05/23 16:40:02;;;;;;;3.78;1.80;;;;;;;;;;6916458;28;20125;-86
2021/05/23 16:43:23;;;;;;;4.28;1.92;;;;;;;;;;6918372;28;20076;-88
2021/05/23 16:46:43;;;;;;;6.63;1.60;;;;;;;;;;6913824;28;20085;-86
2021/05/23 16:50:04;;;;;;;6.18;1.77;;;;;;;;;;6920273;28;20096;-87
2021/05/23 16:53:25;;;;;;;7.50;1.70;;;;;;;;;;6917324;28;20040;-86
2021/05/23 16:56:45;;;;;;;7.03;1.90;;;;;;;;;;6918573;28;20033;-86
2021/05/23 17:00:08;;;;;;;4.88;1.92;;;;;;;;;;6918808;28;20104;-87
2021/05/23 17:03:29;;;;;;;5.20;1.85;;;;;;;;;;6918859;28;20472;-88
2021/05/23 17:06:49;;;;;;;4.88;1.77;;;;;;;;;;6919291;28;20065;-87
2021/05/23 17:10:10;;;;;;;4.57;1.63;;;;;;;;;;6918386;28;20029;-88
2021/05/23 17:13:30;;;;;;;6.43;2.10;;;;;;;;;;6902153;28;20034;-87
2021/05/23 17:16:51;;;;;;;11.52;2.78;;;;;;;;;;6913119;28;20070;-88
2021/05/23 17:20:12;;;;;;;5.97;2.83;;;;;;;;;;6917807;28;20392;-80
2021/05/23 17:23:32;;;;;;;12.82;2.85;;;;;;;;;;6919074;28;20034;-81
2021/05/23 17:26:53;;;;;;;8.88;2.70;;;;;;;;;;6918163;28;20056;-81
2021/05/23 17:30:16;;;;;;;4.72;2.13;;;;;;;;;;6920142;28;20112;-81
2021/05/23 17:33:37;;;;;;;8.38;2.88;;;;;;;;;;6916181;28;20042;-81
2021/05/23 17:36:57;;;;;;;5.22;2.20;;;;;;;;;;6918823;28;20066;-81
2021/05/23 17:40:19;;;;;;;9.05;2.28;;;;;;;;;;6921525;28;20040;-82
2021/05/23 17:43:39;;;;;;;6.47;2.17;;;;;;;;;;6902928;28;20029;-80
2021/05/23 17:47:00;;;;;;;4.63;2.50;;;;;;;;;;6920430;28;20087;-80
2021/05/23 17:50:23;;;;;;;9.07;2.40;;;;;;;;;;6929268;28;20034;-81
2021/05/23 17:53:43;;;;;;;6.82;2.15;;;;;;;;;;6924011;28;20060;-80
2021/05/23 17:57:05;;;;;;;8.00;2.35;;;;;;;;;;6915726;28;20021;-80
2021/05/23 18:00:26;;;;;;;8.40;2.25;;;;;;;;;;6920020;28;20045;-80
2021/05/23 18:03:46;;;;;;;4.82;2.38;;;;;;;;;;6925966;28;20100;-80
2021/05/23 18:07:07;;;;;;;7.38;2.33;;;;;;;;;;6921334;28;20459;-80
2021/05/23 18:10:27;;;;;;;4.93;1.95;;;;;;;;;;6917696;28;20089;-80
2021/05/23 18:13:48;;;;;;;6.88;2.17;;;;;;;;;;6919556;28;20077;-80
2021/05/23 18:17:08;;;;;;;4.28;2.00;;;;;;;;;;6928067;28;20057;-81
2021/05/23 18:20:30;;;;;;;4.82;2.08;;;;;;;;;;6918717;28;20064;-81
2021/05/23 18:23:50;;;;;;;7.20;2.53;;;;;;;;;;6917780;28;20041;-81
2021/05/23 18:27:11;;;;;;;7.00;1.75;;;;;;;;;;6916279;28;20112;-81
2021/05/23 18:30:34;;;;;;;4.03;2.30;;;;;;;;;;6917661;28;20459;-81
2021/05/23 18:33:54;;;;;;;4.80;1.90;;;;;;;;;;6920314;28;20468;-81
2021/05/23 18:37:15;;;;;;;4.85;1.73;;;;;;;;;;6927412;28;20088;-82
2021/05/23 18:40:43;;;;;;;5.43;2.05;;;;;;;;;;6928184;28;20034;-80
2021/05/23 18:44:04;;;;;;;5.72;1.80;;;;;;;;;;6919542;28;20472;-80
2021/05/23 18:47:24;;;;;;;5.32;2.25;;;;;;;;;;6916024;28;20037;-82
2021/05/23 18:50:49;;;;;;;3.92;1.90;;;;;;;;;;6916910;28;20076;-81
2021/05/23 18:54:10;;;;;;;2.72;1.63;;;;;;;;;;6920175;28;20038;-80
2021/05/23 18:57:30;;;;;;;2.88;1.60;;;;;;;;;;6920474;28;20030;-80
2021/05/23 19:00:51;;;;;;;5.82;1.80;;;;;;;;;;6921743;28;20042;-80
2021/05/23 19:04:11;;;;;;;3.40;1.83;;;;;;;;;;6920449;28;20065;-80
2021/05/23 19:07:35;;;;;;;3.55;1.98;;;;;;;;;;6913912;28;20049;-80
2021/05/23 19:10:57;;;;;;;4.28;1.65;;;;;;;;;;6920524;28;20065;-79
2021/05/23 19:14:18;;;;;;;5.68;2.00;;;;;;;;;;6916910;28;20428;-80
2021/05/23 19:17:39;;;;;;;3.15;1.60;;;;;;;;;;6915559;28;20643;-80
2021/05/23 19:21:01;;;;;;;3.53;1.50;;;;;;;;;;6912045;28;20069;-80
2021/05/23 19:24:21;;;;;;;2.05;1.80;;;;;;;;;;6911457;28;20041;-80
2021/05/23 19:27:42;;;;;;;4.85;1.48;;;;;;;;;;6912662;28;20037;-80
2021/05/23 19:31:05;;;;;;;3.28;1.45;;;;;;;;;;6909978;28;20368;-80
2021/05/23 19:34:26;;;;;;;3.60;1.67;;;;;;;;;;6909133;28;20032;-79
2021/05/23 19:37:46;;;;;;;2.95;1.55;;;;;;;;;;6910256;28;20030;-79
2021/05/23 19:41:07;;;;;;;6.47;1.63;;;;;;;;;;6912781;28;20093;-80
2021/05/23 19:44:27;;;;;;;2.40;1.27;;;;;;;;;;6913200;28;20056;-80
2021/05/23 19:47:48;;;;;;;3.15;1.52;;;;;;;;;;6914157;28;20483;-79
2021/05/23 19:51:09;;;;;;;2.55;1.52;;;;;;;;;;6914952;28;20044;-79
2021/05/23 19:54:29;;;;;;;1.65;1.25;;;;;;;;;;6914921;28;20034;-79
2021/05/23 19:57:50;;;;;;;4.78;1.55;;;;;;;;;;6913353;28;20026;-79
2021/05/23 20:01:10;;;;;;;2.58;1.52;;;;;;;;;;6916955;28;20108;-79
2021/05/23 20:04:31;;;;;;;2.70;1.60;;;;;;;;;;6921169;28;20022;-79